sensor_id;sensor_type;location;lat;lon;timestamp;P1;durP1;ratioP1;P2;durP2;ratioP2
59922;SDS011;45778;51.142;3.732;2024-03-29T00:01:23;6.07;;;0.65;;
59922;SDS011;45778;51.142;3.732;2024-03-29T00:03:49;4.38;;;0.52;;
59922;SDS011;45778;51.142;3.732;2024-03-29T00:06:15;3.30;;;0.75;;
59922;SDS011;45778;51.142;3.732;2024-03-29T00:08:40;3.95;;;0.52;;
59922;SDS011;45778;51.142;3.732;2024-03-29T00:11:06;7.22;;;1.35;;
59922;SDS011;45778;51.142;3.732;2024-03-29T00:13:31;4.50;;;1.00;;
59922;SDS011;45778;51.142;3.732;2024-03-29T00:15:57;3.92;;;0.50;;
59922;SDS011;45778;51.142;3.732;2024-03-29T00:18:23;2.92;;;0.57;;
59922;SDS011;45778;51.142;3.732;2024-03-29T00:20:48;3.33;;;1.10;;
59922;SDS011;45778;51.142;3.732;2024-03-29T00:23:14;3.97;;;0.93;;
59922;SDS011;45778;51.142;3.732;2024-03-29T00:25:40;1.25;;;0.38;;
59922;SDS011;45778;51.142;3.732;2024-03-29T00:28:06;3.25;;;0.60;;
59922;SDS011;45778;51.142;3.732;2024-03-29T00:30:32;2.70;;;0.57;;
59922;SDS011;45778;51.142;3.732;2024-03-29T00:32:58;3.88;;;0.60;;
59922;SDS011;45778;51.142;3.732;2024-03-29T00:35:23;3.22;;;0.77;;
59922;SDS011;45778;51.142;3.732;2024-03-29T00:37:49;3.08;;;0.57;;
59922;SDS011;45778;51.142;3.732;2024-03-29T00:40:17;6.38;;;0.60;;
59922;SDS011;45778;51.142;3.732;2024-03-29T00:42:43;2.83;;;0.50;;
59922;SDS011;45778;51.142;3.732;2024-03-29T00:45:09;5.03;;;0.70;;
59922;SDS011;45778;51.142;3.732;2024-03-29T00:47:35;3.58;;;1.33;;
59922;SDS011;45778;51.142;3.732;2024-03-29T00:50:00;1.58;;;0.57;;
59922;SDS011;45778;51.142;3.732;2024-03-29T00:52:26;3.63;;;0.93;;
59922;SDS011;45778;51.142;3.732;2024-03-29T00:54:52;3.03;;;0.50;;
59922;SDS011;45778;51.142;3.732;2024-03-29T00:57:18;2.78;;;0.95;;
59922;SDS011;45778;51.142;3.732;2024-03-29T00:59:44;2.33;;;0.70;;
59922;SDS011;45778;51.142;3.732;2024-03-29T01:02:09;1.02;;;0.40;;
59922;SDS011;45778;51.142;3.732;2024-03-29T01:04:35;2.65;;;0.50;;
59922;SDS011;45778;51.142;3.732;2024-03-29T01:07:03;2.80;;;0.45;;
59922;SDS011;45778;51.142;3.732;2024-03-29T01:09:28;0.40;;;0.30;;
59922;SDS011;45778;51.142;3.732;2024-03-29T01:11:54;4.57;;;0.55;;
59922;SDS011;45778;51.142;3.732;2024-03-29T01:14:20;3.97;;;0.40;;
59922;SDS011;45778;51.142;3.732;2024-03-29T01:16:46;3.80;;;0.50;;
59922;SDS011;45778;51.142;3.732;2024-03-29T01:19:11;4.32;;;0.50;;
59922;SDS011;45778;51.142;3.732;2024-03-29T01:21:37;4.47;;;0.40;;
59922;SDS011;45778;51.142;3.732;2024-03-29T01:24:03;1.02;;;0.40;;
59922;SDS011;45778;51.142;3.732;2024-03-29T01:26:29;1.75;;;0.30;;
59922;SDS011;45778;51.142;3.732;2024-03-29T01:28:56;5.15;;;0.55;;
59922;SDS011;45778;51.142;3.732;2024-03-29T01:31:22;2.67;;;0.50;;
59922;SDS011;45778;51.142;3.732;2024-03-29T01:33:49;2.88;;;0.43;;
59922;SDS011;45778;51.142;3.732;2024-03-29T01:36:15;2.38;;;0.80;;
59922;SDS011;45778;51.142;3.732;2024-03-29T01:38:41;1.45;;;0.40;;
59922;SDS011;45778;51.142;3.732;2024-03-29T01:41:07;3.08;;;0.75;;
59922;SDS011;45778;51.142;3.732;2024-03-29T01:43:32;4.57;;;0.90;;
59922;SDS011;45778;51.142;3.732;2024-03-29T01:45:58;1.08;;;0.60;;
59922;SDS011;45778;51.142;3.732;2024-03-29T01:48:24;1.73;;;0.50;;
59922;SDS011;45778;51.142;3.732;2024-03-29T01:50:52;0.98;;;0.40;;
59922;SDS011;45778;51.142;3.732;2024-03-29T01:53:21;1.48;;;0.40;;
59922;SDS011;45778;51.142;3.732;2024-03-29T01:55:48;5.00;;;0.65;;
59922;SDS011;45778;51.142;3.732;2024-03-29T01:58:13;2.85;;;0.98;;
59922;SDS011;45778;51.142;3.732;2024-03-29T02:00:44;2.67;;;0.55;;
59922;SDS011;45778;51.142;3.732;2024-03-29T02:03:17;4.20;;;0.68;;
59922;SDS011;45778;51.142;3.732;2024-03-29T02:05:46;1.90;;;0.25;;
59922;SDS011;45778;51.142;3.732;2024-03-29T02:08:13;1.75;;;0.30;;
59922;SDS011;45778;51.142;3.732;2024-03-29T02:10:40;0.63;;;0.20;;
59922;SDS011;45778;51.142;3.732;2024-03-29T02:13:06;1.13;;;0.88;;
59922;SDS011;45778;51.142;3.732;2024-03-29T02:15:32;2.10;;;0.38;;
59922;SDS011;45778;51.142;3.732;2024-03-29T02:17:58;3.50;;;0.38;;
59922;SDS011;45778;51.142;3.732;2024-03-29T02:20:24;1.75;;;0.40;;
59922;SDS011;45778;51.142;3.732;2024-03-29T02:22:55;0.93;;;0.20;;
59922;SDS011;45778;51.142;3.732;2024-03-29T02:25:30;2.78;;;0.30;;
59922;SDS011;45778;51.142;3.732;2024-03-29T02:27:56;3.00;;;0.20;;
59922;SDS011;45778;51.142;3.732;2024-03-29T02:30:26;0.08;;;0.08;;
59922;SDS011;45778;51.142;3.732;2024-03-29T02:32:52;1.50;;;0.25;;
59922;SDS011;45778;51.142;3.732;2024-03-29T02:35:18;0.05;;;0.00;;
59922;SDS011;45778;51.142;3.732;2024-03-29T02:37:43;1.38;;;0.10;;
59922;SDS011;45778;51.142;3.732;2024-03-29T02:40:09;2.30;;;0.28;;
59922;SDS011;45778;51.142;3.732;2024-03-29T02:42:35;0.95;;;0.20;;
59922;SDS011;45778;51.142;3.732;2024-03-29T02:45:01;0.55;;;0.30;;
59922;SDS011;45778;51.142;3.732;2024-03-29T02:47:28;2.17;;;0.20;;
59922;SDS011;45778;51.142;3.732;2024-03-29T02:49:53;0.57;;;0.30;;
59922;SDS011;45778;51.142;3.732;2024-03-29T02:52:19;0.32;;;0.20;;
59922;SDS011;45778;51.142;3.732;2024-03-29T02:54:45;1.33;;;0.20;;
59922;SDS011;45778;51.142;3.732;2024-03-29T02:57:10;0.10;;;0.10;;
59922;SDS011;45778;51.142;3.732;2024-03-29T02:59:36;0.30;;;0.13;;
59922;SDS011;45778;51.142;3.732;2024-03-29T03:02:03;0.65;;;0.10;;
59922;SDS011;45778;51.142;3.732;2024-03-29T03:04:29;1.65;;;0.30;;
59922;SDS011;45778;51.142;3.732;2024-03-29T03:06:55;0.98;;;0.20;;
59922;SDS011;45778;51.142;3.732;2024-03-29T03:09:31;0.90;;;0.20;;
59922;SDS011;45778;51.142;3.732;2024-03-29T03:12:15;0.68;;;0.20;;
59922;SDS011;45778;51.142;3.732;2024-03-29T03:14:41;0.20;;;0.15;;
59922;SDS011;45778;51.142;3.732;2024-03-29T03:17:07;1.65;;;0.20;;
59922;SDS011;45778;51.142;3.732;2024-03-29T03:19:32;1.10;;;0.28;;
59922;SDS011;45778;51.142;3.732;2024-03-29T03:21:58;0.75;;;0.15;;
59922;SDS011;45778;51.142;3.732;2024-03-29T03:24:24;0.70;;;0.20;;
59922;SDS011;45778;51.142;3.732;2024-03-29T03:26:49;0.90;;;0.30;;
59922;SDS011;45778;51.142;3.732;2024-03-29T03:29:15;0.95;;;0.20;;
59922;SDS011;45778;51.142;3.732;2024-03-29T03:31:40;0.43;;;0.20;;
59922;SDS011;45778;51.142;3.732;2024-03-29T03:34:07;2.63;;;0.47;;
59922;SDS011;45778;51.142;3.732;2024-03-29T03:36:33;1.05;;;0.20;;
59922;SDS011;45778;51.142;3.732;2024-03-29T03:38:59;3.00;;;0.40;;
59922;SDS011;45778;51.142;3.732;2024-03-29T03:41:24;1.83;;;0.60;;
59922;SDS011;45778;51.142;3.732;2024-03-29T03:43:50;0.90;;;0.43;;
59922;SDS011;45778;51.142;3.732;2024-03-29T03:46:16;2.08;;;0.22;;
59922;SDS011;45778;51.142;3.732;2024-03-29T03:48:41;1.15;;;0.30;;
59922;SDS011;45778;51.142;3.732;2024-03-29T03:51:07;2.17;;;0.68;;
59922;SDS011;45778;51.142;3.732;2024-03-29T03:53:33;1.77;;;0.50;;
59922;SDS011;45778;51.142;3.732;2024-03-29T03:55:59;1.70;;;0.38;;
59922;SDS011;45778;51.142;3.732;2024-03-29T03:58:25;2.58;;;0.63;;
59922;SDS011;45778;51.142;3.732;2024-03-29T04:00:50;1.52;;;0.43;;
59922;SDS011;45778;51.142;3.732;2024-03-29T04:03:16;2.65;;;0.55;;
59922;SDS011;45778;51.142;3.732;2024-03-29T04:05:42;1.92;;;0.47;;
59922;SDS011;45778;51.142;3.732;2024-03-29T04:08:07;3.60;;;0.50;;
59922;SDS011;45778;51.142;3.732;2024-03-29T04:10:37;1.33;;;0.38;;
59922;SDS011;45778;51.142;3.732;2024-03-29T04:13:03;3.10;;;0.50;;
59922;SDS011;45778;51.142;3.732;2024-03-29T04:15:29;1.13;;;0.38;;
59922;SDS011;45778;51.142;3.732;2024-03-29T04:17:56;2.45;;;0.30;;
59922;SDS011;45778;51.142;3.732;2024-03-29T04:20:21;3.65;;;0.57;;
59922;SDS011;45778;51.142;3.732;2024-03-29T04:22:50;3.67;;;1.02;;
59922;SDS011;45778;51.142;3.732;2024-03-29T04:25:16;1.75;;;0.32;;
59922;SDS011;45778;51.142;3.732;2024-03-29T04:27:41;3.70;;;0.65;;
59922;SDS011;45778;51.142;3.732;2024-03-29T04:30:07;0.40;;;0.30;;
59922;SDS011;45778;51.142;3.732;2024-03-29T04:32:33;1.42;;;0.40;;
59922;SDS011;45778;51.142;3.732;2024-03-29T04:34:58;2.83;;;0.60;;
59922;SDS011;45778;51.142;3.732;2024-03-29T04:37:24;4.43;;;0.50;;
59922;SDS011;45778;51.142;3.732;2024-03-29T04:39:52;2.38;;;0.60;;
59922;SDS011;45778;51.142;3.732;2024-03-29T04:42:17;1.42;;;0.90;;
59922;SDS011;45778;51.142;3.732;2024-03-29T04:44:43;1.33;;;0.50;;
59922;SDS011;45778;51.142;3.732;2024-03-29T04:47:09;3.30;;;0.68;;
59922;SDS011;45778;51.142;3.732;2024-03-29T04:49:34;1.77;;;0.30;;
59922;SDS011;45778;51.142;3.732;2024-03-29T04:52:02;3.67;;;0.30;;
59922;SDS011;45778;51.142;3.732;2024-03-29T04:54:29;3.08;;;0.88;;
59922;SDS011;45778;51.142;3.732;2024-03-29T04:56:55;3.90;;;0.40;;
59922;SDS011;45778;51.142;3.732;2024-03-29T04:59:21;4.97;;;0.52;;
59922;SDS011;45778;51.142;3.732;2024-03-29T05:01:48;1.30;;;0.40;;
59922;SDS011;45778;51.142;3.732;2024-03-29T05:04:18;3.10;;;0.57;;
59922;SDS011;45778;51.142;3.732;2024-03-29T05:06:56;1.98;;;0.52;;
59922;SDS011;45778;51.142;3.732;2024-03-29T05:09:26;0.65;;;0.40;;
59922;SDS011;45778;51.142;3.732;2024-03-29T05:11:51;1.40;;;0.90;;
59922;SDS011;45778;51.142;3.732;2024-03-29T05:14:19;2.45;;;0.75;;
59922;SDS011;45778;51.142;3.732;2024-03-29T05:16:47;2.60;;;0.50;;
59922;SDS011;45778;51.142;3.732;2024-03-29T05:19:14;3.42;;;0.40;;
59922;SDS011;45778;51.142;3.732;2024-03-29T05:21:40;3.20;;;0.50;;
59922;SDS011;45778;51.142;3.732;2024-03-29T05:24:07;2.50;;;0.47;;
59922;SDS011;45778;51.142;3.732;2024-03-29T05:26:33;1.25;;;0.40;;
59922;SDS011;45778;51.142;3.732;2024-03-29T05:29:02;0.90;;;0.40;;
59922;SDS011;45778;51.142;3.732;2024-03-29T05:31:29;0.88;;;0.38;;
59922;SDS011;45778;51.142;3.732;2024-03-29T05:33:54;2.63;;;0.60;;
59922;SDS011;45778;51.142;3.732;2024-03-29T05:36:20;1.45;;;0.75;;
59922;SDS011;45778;51.142;3.732;2024-03-29T05:38:46;0.82;;;0.40;;
59922;SDS011;45778;51.142;3.732;2024-03-29T05:41:11;0.65;;;0.40;;
59922;SDS011;45778;51.142;3.732;2024-03-29T05:43:40;1.73;;;0.50;;
59922;SDS011;45778;51.142;3.732;2024-03-29T05:46:06;3.35;;;1.02;;
59922;SDS011;45778;51.142;3.732;2024-03-29T05:48:32;1.52;;;0.68;;
59922;SDS011;45778;51.142;3.732;2024-03-29T05:50:58;3.97;;;0.65;;
59922;SDS011;45778;51.142;3.732;2024-03-29T05:53:23;1.35;;;0.50;;
59922;SDS011;45778;51.142;3.732;2024-03-29T05:55:49;2.47;;;0.50;;
59922;SDS011;45778;51.142;3.732;2024-03-29T05:58:15;3.17;;;0.50;;
59922;SDS011;45778;51.142;3.732;2024-03-29T06:00:43;2.00;;;0.30;;
59922;SDS011;45778;51.142;3.732;2024-03-29T06:03:09;2.72;;;0.40;;
59922;SDS011;45778;51.142;3.732;2024-03-29T06:05:35;3.78;;;1.15;;
59922;SDS011;45778;51.142;3.732;2024-03-29T06:08:01;2.55;;;0.68;;
59922;SDS011;45778;51.142;3.732;2024-03-29T06:10:27;2.40;;;0.60;;
59922;SDS011;45778;51.142;3.732;2024-03-29T06:12:52;3.13;;;0.82;;
59922;SDS011;45778;51.142;3.732;2024-03-29T06:15:18;1.20;;;0.50;;
59922;SDS011;45778;51.142;3.732;2024-03-29T06:18:03;1.65;;;0.65;;
59922;SDS011;45778;51.142;3.732;2024-03-29T06:20:34;2.22;;;0.88;;
59922;SDS011;45778;51.142;3.732;2024-03-29T06:23:00;0.63;;;0.20;;
59922;SDS011;45778;51.142;3.732;2024-03-29T06:25:26;1.05;;;0.40;;
59922;SDS011;45778;51.142;3.732;2024-03-29T06:27:51;1.35;;;0.50;;
59922;SDS011;45778;51.142;3.732;2024-03-29T06:30:17;1.38;;;0.50;;
59922;SDS011;45778;51.142;3.732;2024-03-29T06:32:44;1.63;;;0.63;;
59922;SDS011;45778;51.142;3.732;2024-03-29T06:35:10;3.38;;;0.80;;
59922;SDS011;45778;51.142;3.732;2024-03-29T06:37:39;3.03;;;0.75;;
59922;SDS011;45778;51.142;3.732;2024-03-29T06:40:05;1.13;;;0.65;;
59922;SDS011;45778;51.142;3.732;2024-03-29T06:42:32;1.73;;;0.85;;
59922;SDS011;45778;51.142;3.732;2024-03-29T06:44:59;1.27;;;0.50;;
59922;SDS011;45778;51.142;3.732;2024-03-29T06:47:25;4.68;;;0.68;;
59922;SDS011;45778;51.142;3.732;2024-03-29T06:49:52;1.58;;;0.70;;
59922;SDS011;45778;51.142;3.732;2024-03-29T06:52:23;5.22;;;1.00;;
59922;SDS011;45778;51.142;3.732;2024-03-29T06:54:49;2.50;;;0.90;;
59922;SDS011;45778;51.142;3.732;2024-03-29T06:57:15;3.17;;;0.75;;
59922;SDS011;45778;51.142;3.732;2024-03-29T06:59:45;1.88;;;0.90;;
59922;SDS011;45778;51.142;3.732;2024-03-29T07:02:11;1.63;;;0.90;;
59922;SDS011;45778;51.142;3.732;2024-03-29T07:04:37;5.85;;;1.13;;
59922;SDS011;45778;51.142;3.732;2024-03-29T07:07:03;8.27;;;0.93;;
59922;SDS011;45778;51.142;3.732;2024-03-29T07:09:29;3.03;;;0.80;;
59922;SDS011;45778;51.142;3.732;2024-03-29T07:11:54;2.85;;;0.70;;
59922;SDS011;45778;51.142;3.732;2024-03-29T07:14:20;1.70;;;0.60;;
59922;SDS011;45778;51.142;3.732;2024-03-29T07:16:46;3.90;;;0.77;;
59922;SDS011;45778;51.142;3.732;2024-03-29T07:19:13;1.48;;;0.80;;
59922;SDS011;45778;51.142;3.732;2024-03-29T07:21:48;3.22;;;0.52;;
59922;SDS011;45778;51.142;3.732;2024-03-29T07:24:17;2.20;;;0.68;;
59922;SDS011;45778;51.142;3.732;2024-03-29T07:26:44;3.58;;;0.70;;
59922;SDS011;45778;51.142;3.732;2024-03-29T07:29:10;3.78;;;1.23;;
59922;SDS011;45778;51.142;3.732;2024-03-29T07:31:36;2.90;;;1.08;;
59922;SDS011;45778;51.142;3.732;2024-03-29T07:34:01;2.78;;;0.93;;
59922;SDS011;45778;51.142;3.732;2024-03-29T07:36:27;3.85;;;0.63;;
59922;SDS011;45778;51.142;3.732;2024-03-29T07:38:59;2.38;;;0.90;;
59922;SDS011;45778;51.142;3.732;2024-03-29T07:41:25;3.33;;;0.50;;
59922;SDS011;45778;51.142;3.732;2024-03-29T07:43:52;1.88;;;0.50;;
59922;SDS011;45778;51.142;3.732;2024-03-29T07:46:21;0.52;;;0.50;;
59922;SDS011;45778;51.142;3.732;2024-03-29T07:48:48;2.17;;;0.40;;
59922;SDS011;45778;51.142;3.732;2024-03-29T07:51:14;3.22;;;0.70;;
59922;SDS011;45778;51.142;3.732;2024-03-29T07:53:40;2.25;;;0.70;;
59922;SDS011;45778;51.142;3.732;2024-03-29T07:56:05;0.73;;;0.40;;
59922;SDS011;45778;51.142;3.732;2024-03-29T07:58:31;0.80;;;0.50;;
59922;SDS011;45778;51.142;3.732;2024-03-29T08:00:57;4.20;;;0.40;;
59922;SDS011;45778;51.142;3.732;2024-03-29T08:03:22;1.00;;;0.40;;
59922;SDS011;45778;51.142;3.732;2024-03-29T08:05:58;1.45;;;0.50;;
59922;SDS011;45778;51.142;3.732;2024-03-29T08:08:25;1.33;;;0.40;;
59922;SDS011;45778;51.142;3.732;2024-03-29T08:10:52;4.90;;;0.60;;
59922;SDS011;45778;51.142;3.732;2024-03-29T08:13:19;1.58;;;0.50;;
59922;SDS011;45778;51.142;3.732;2024-03-29T08:15:47;1.60;;;0.43;;
59922;SDS011;45778;51.142;3.732;2024-03-29T08:18:13;0.93;;;0.55;;
59922;SDS011;45778;51.142;3.732;2024-03-29T08:20:39;1.25;;;0.52;;
59922;SDS011;45778;51.142;3.732;2024-03-29T08:23:06;1.67;;;0.50;;
59922;SDS011;45778;51.142;3.732;2024-03-29T08:25:32;1.70;;;0.82;;
59922;SDS011;45778;51.142;3.732;2024-03-29T08:27:57;3.42;;;1.00;;
59922;SDS011;45778;51.142;3.732;2024-03-29T08:30:26;2.38;;;0.88;;
59922;SDS011;45778;51.142;3.732;2024-03-29T08:32:56;1.38;;;0.63;;
59922;SDS011;45778;51.142;3.732;2024-03-29T08:35:24;2.25;;;0.88;;
59922;SDS011;45778;51.142;3.732;2024-03-29T08:37:50;2.65;;;1.02;;
59922;SDS011;45778;51.142;3.732;2024-03-29T08:40:16;0.68;;;0.57;;
59922;SDS011;45778;51.142;3.732;2024-03-29T08:42:42;2.08;;;0.68;;
59922;SDS011;45778;51.142;3.732;2024-03-29T08:45:09;1.10;;;0.77;;
59922;SDS011;45778;51.142;3.732;2024-03-29T08:47:35;2.05;;;0.82;;
59922;SDS011;45778;51.142;3.732;2024-03-29T08:50:00;2.83;;;0.88;;
59922;SDS011;45778;51.142;3.732;2024-03-29T08:52:28;2.00;;;1.15;;
59922;SDS011;45778;51.142;3.732;2024-03-29T08:54:55;4.13;;;0.90;;
59922;SDS011;45778;51.142;3.732;2024-03-29T08:57:21;2.42;;;1.13;;
59922;SDS011;45778;51.142;3.732;2024-03-29T08:59:46;1.90;;;0.80;;
59922;SDS011;45778;51.142;3.732;2024-03-29T09:02:12;4.40;;;1.30;;
59922;SDS011;45778;51.142;3.732;2024-03-29T09:04:38;4.50;;;1.98;;
59922;SDS011;45778;51.142;3.732;2024-03-29T09:07:03;2.08;;;0.90;;
59922;SDS011;45778;51.142;3.732;2024-03-29T09:09:30;2.78;;;1.13;;
59922;SDS011;45778;51.142;3.732;2024-03-29T09:11:57;2.28;;;1.02;;
59922;SDS011;45778;51.142;3.732;2024-03-29T09:14:23;2.28;;;1.10;;
59922;SDS011;45778;51.142;3.732;2024-03-29T09:16:50;2.45;;;1.15;;
59922;SDS011;45778;51.142;3.732;2024-03-29T09:19:16;3.63;;;1.10;;
59922;SDS011;45778;51.142;3.732;2024-03-29T09:21:42;2.92;;;1.13;;
59922;SDS011;45778;51.142;3.732;2024-03-29T09:24:07;1.50;;;1.13;;
59922;SDS011;45778;51.142;3.732;2024-03-29T09:26:33;2.47;;;1.17;;
59922;SDS011;45778;51.142;3.732;2024-03-29T09:28:59;2.38;;;0.85;;
59922;SDS011;45778;51.142;3.732;2024-03-29T09:31:24;1.67;;;1.05;;
59922;SDS011;45778;51.142;3.732;2024-03-29T09:33:51;3.13;;;1.60;;
59922;SDS011;45778;51.142;3.732;2024-03-29T09:36:22;4.57;;;1.10;;
59922;SDS011;45778;51.142;3.732;2024-03-29T09:38:49;2.92;;;0.95;;
59922;SDS011;45778;51.142;3.732;2024-03-29T09:41:16;2.22;;;1.02;;
59922;SDS011;45778;51.142;3.732;2024-03-29T09:43:43;2.35;;;0.60;;
59922;SDS011;45778;51.142;3.732;2024-03-29T09:46:10;1.98;;;1.00;;
59922;SDS011;45778;51.142;3.732;2024-03-29T09:48:38;3.83;;;1.58;;
59922;SDS011;45778;51.142;3.732;2024-03-29T09:51:08;1.38;;;0.98;;
59922;SDS011;45778;51.142;3.732;2024-03-29T09:53:35;3.20;;;1.35;;
59922;SDS011;45778;51.142;3.732;2024-03-29T09:56:06;2.33;;;1.20;;
59922;SDS011;45778;51.142;3.732;2024-03-29T09:58:33;2.78;;;1.20;;
59922;SDS011;45778;51.142;3.732;2024-03-29T10:01:00;3.58;;;1.33;;
59922;SDS011;45778;51.142;3.732;2024-03-29T10:03:29;2.28;;;1.00;;
59922;SDS011;45778;51.142;3.732;2024-03-29T10:05:57;1.48;;;0.63;;
59922;SDS011;45778;51.142;3.732;2024-03-29T10:08:25;3.65;;;1.63;;
59922;SDS011;45778;51.142;3.732;2024-03-29T10:10:58;1.20;;;0.68;;
59922;SDS011;45778;51.142;3.732;2024-03-29T10:13:24;1.65;;;1.00;;
59922;SDS011;45778;51.142;3.732;2024-03-29T10:15:54;1.98;;;1.02;;
59922;SDS011;45778;51.142;3.732;2024-03-29T10:18:24;0.90;;;0.80;;
59922;SDS011;45778;51.142;3.732;2024-03-29T10:23:26;2.47;;;1.05;;
59922;SDS011;45778;51.142;3.732;2024-03-29T10:25:52;0.32;;;0.30;;
59922;SDS011;45778;51.142;3.732;2024-03-29T10:28:21;2.28;;;0.80;;
59922;SDS011;45778;51.142;3.732;2024-03-29T10:30:48;2.33;;;0.90;;
59922;SDS011;45778;51.142;3.732;2024-03-29T10:33:16;2.75;;;1.13;;
59922;SDS011;45778;51.142;3.732;2024-03-29T10:35:42;1.42;;;0.85;;
59922;SDS011;45778;51.142;3.732;2024-03-29T10:38:09;1.52;;;0.85;;
59922;SDS011;45778;51.142;3.732;2024-03-29T10:40:39;3.28;;;0.68;;
59922;SDS011;45778;51.142;3.732;2024-03-29T10:43:09;1.63;;;0.65;;
59922;SDS011;45778;51.142;3.732;2024-03-29T10:45:41;1.58;;;0.70;;
59922;SDS011;45778;51.142;3.732;2024-03-29T10:48:08;1.55;;;0.82;;
59922;SDS011;45778;51.142;3.732;2024-03-29T10:50:35;1.25;;;0.80;;
59922;SDS011;45778;51.142;3.732;2024-03-29T10:53:02;3.45;;;0.88;;
59922;SDS011;45778;51.142;3.732;2024-03-29T10:55:34;1.38;;;0.73;;
59922;SDS011;45778;51.142;3.732;2024-03-29T10:58:01;3.88;;;0.63;;
59922;SDS011;45778;51.142;3.732;2024-03-29T11:00:28;1.75;;;0.70;;
59922;SDS011;45778;51.142;3.732;2024-03-29T11:05:47;1.27;;;0.77;;
59922;SDS011;45778;51.142;3.732;2024-03-29T11:08:16;1.58;;;0.85;;
59922;SDS011;45778;51.142;3.732;2024-03-29T11:10:48;2.72;;;0.80;;
59922;SDS011;45778;51.142;3.732;2024-03-29T11:16:05;1.90;;;0.50;;
59922;SDS011;45778;51.142;3.732;2024-03-29T11:18:34;3.63;;;1.25;;
59922;SDS011;45778;51.142;3.732;2024-03-29T11:21:03;3.78;;;0.60;;
59922;SDS011;45778;51.142;3.732;2024-03-29T11:23:31;3.95;;;0.90;;
59922;SDS011;45778;51.142;3.732;2024-03-29T11:25:59;2.88;;;0.82;;
59922;SDS011;45778;51.142;3.732;2024-03-29T11:28:26;2.47;;;0.70;;
59922;SDS011;45778;51.142;3.732;2024-03-29T11:30:56;4.35;;;0.65;;
59922;SDS011;45778;51.142;3.732;2024-03-29T11:33:30;1.98;;;0.50;;
59922;SDS011;45778;51.142;3.732;2024-03-29T11:36:03;1.88;;;0.57;;
59922;SDS011;45778;51.142;3.732;2024-03-29T11:38:49;2.05;;;0.47;;
59922;SDS011;45778;51.142;3.732;2024-03-29T11:46:18;2.85;;;0.80;;
59922;SDS011;45778;51.142;3.732;2024-03-29T11:48:44;2.22;;;0.55;;
59922;SDS011;45778;51.142;3.732;2024-03-29T11:51:19;1.10;;;0.77;;
59922;SDS011;45778;51.142;3.732;2024-03-29T11:53:47;1.85;;;0.40;;
59922;SDS011;45778;51.142;3.732;2024-03-29T11:56:15;1.48;;;0.50;;
59922;SDS011;45778;51.142;3.732;2024-03-29T11:58:41;0.30;;;0.25;;
59922;SDS011;45778;51.142;3.732;2024-03-29T12:01:07;1.08;;;0.40;;
59922;SDS011;45778;51.142;3.732;2024-03-29T12:03:39;0.80;;;0.35;;
59922;SDS011;45778;51.142;3.732;2024-03-29T12:06:06;1.33;;;0.40;;
59922;SDS011;45778;51.142;3.732;2024-03-29T12:08:33;1.15;;;0.43;;
59922;SDS011;45778;51.142;3.732;2024-03-29T12:11:02;3.13;;;0.43;;
59922;SDS011;45778;51.142;3.732;2024-03-29T12:13:29;1.98;;;0.47;;
59922;SDS011;45778;51.142;3.732;2024-03-29T12:15:55;1.88;;;0.30;;
59922;SDS011;45778;51.142;3.732;2024-03-29T12:18:22;0.85;;;0.32;;
59922;SDS011;45778;51.142;3.732;2024-03-29T12:20:49;2.45;;;0.38;;
59922;SDS011;45778;51.142;3.732;2024-03-29T12:23:16;1.13;;;0.32;;
59922;SDS011;45778;51.142;3.732;2024-03-29T12:25:46;2.47;;;0.57;;
59922;SDS011;45778;51.142;3.732;2024-03-29T12:28:14;1.73;;;0.43;;
59922;SDS011;45778;51.142;3.732;2024-03-29T12:30:41;1.27;;;0.73;;
59922;SDS011;45778;51.142;3.732;2024-03-29T12:33:10;1.25;;;0.30;;
59922;SDS011;45778;51.142;3.732;2024-03-29T12:35:43;2.30;;;0.38;;
59922;SDS011;45778;51.142;3.732;2024-03-29T12:38:13;1.88;;;0.30;;
59922;SDS011;45778;51.142;3.732;2024-03-29T12:40:40;0.77;;;0.20;;
59922;SDS011;45778;51.142;3.732;2024-03-29T12:43:12;4.72;;;0.40;;
59922;SDS011;45778;51.142;3.732;2024-03-29T12:45:42;2.83;;;0.47;;
59922;SDS011;45778;51.142;3.732;2024-03-29T12:48:19;2.03;;;0.30;;
59922;SDS011;45778;51.142;3.732;2024-03-29T12:50:49;2.92;;;0.70;;
59922;SDS011;45778;51.142;3.732;2024-03-29T12:53:18;2.13;;;0.40;;
59922;SDS011;45778;51.142;3.732;2024-03-29T12:55:45;4.70;;;0.50;;
59922;SDS011;45778;51.142;3.732;2024-03-29T12:58:12;2.25;;;0.40;;
59922;SDS011;45778;51.142;3.732;2024-03-29T13:00:39;0.80;;;0.30;;
59922;SDS011;45778;51.142;3.732;2024-03-29T13:03:05;1.17;;;0.30;;
59922;SDS011;45778;51.142;3.732;2024-03-29T13:05:32;1.67;;;0.50;;
59922;SDS011;45778;51.142;3.732;2024-03-29T13:08:02;1.42;;;0.40;;
59922;SDS011;45778;51.142;3.732;2024-03-29T13:10:29;0.40;;;0.30;;
59922;SDS011;45778;51.142;3.732;2024-03-29T13:12:58;1.75;;;0.35;;
59922;SDS011;45778;51.142;3.732;2024-03-29T13:15:27;0.38;;;0.28;;
59922;SDS011;45778;51.142;3.732;2024-03-29T13:17:54;0.47;;;0.20;;
59922;SDS011;45778;51.142;3.732;2024-03-29T13:20:23;1.35;;;0.50;;
59922;SDS011;45778;51.142;3.732;2024-03-29T13:22:50;0.82;;;0.20;;
59922;SDS011;45778;51.142;3.732;2024-03-29T13:25:17;0.98;;;0.20;;
59922;SDS011;45778;51.142;3.732;2024-03-29T13:27:44;1.25;;;0.30;;
59922;SDS011;45778;51.142;3.732;2024-03-29T13:30:12;1.92;;;0.40;;
59922;SDS011;45778;51.142;3.732;2024-03-29T13:32:39;0.22;;;0.22;;
59922;SDS011;45778;51.142;3.732;2024-03-29T13:35:06;0.82;;;0.20;;
59922;SDS011;45778;51.142;3.732;2024-03-29T13:37:39;1.80;;;0.40;;
59922;SDS011;45778;51.142;3.732;2024-03-29T13:40:08;1.63;;;0.20;;
59922;SDS011;45778;51.142;3.732;2024-03-29T13:42:35;0.47;;;0.30;;
59922;SDS011;45778;51.142;3.732;2024-03-29T13:45:02;3.22;;;0.40;;
59922;SDS011;45778;51.142;3.732;2024-03-29T13:47:28;1.00;;;0.32;;
59922;SDS011;45778;51.142;3.732;2024-03-29T13:49:54;0.60;;;0.35;;
59922;SDS011;45778;51.142;3.732;2024-03-29T13:52:21;0.65;;;0.30;;
59922;SDS011;45778;51.142;3.732;2024-03-29T13:54:47;0.82;;;0.30;;
59922;SDS011;45778;51.142;3.732;2024-03-29T13:57:13;0.28;;;0.20;;
59922;SDS011;45778;51.142;3.732;2024-03-29T13:59:39;1.35;;;0.32;;
59922;SDS011;45778;51.142;3.732;2024-03-29T14:02:13;0.95;;;0.50;;
59922;SDS011;45778;51.142;3.732;2024-03-29T14:04:41;0.47;;;0.30;;
59922;SDS011;45778;51.142;3.732;2024-03-29T14:07:08;0.30;;;0.25;;
59922;SDS011;45778;51.142;3.732;2024-03-29T14:09:42;1.00;;;0.30;;
59922;SDS011;45778;51.142;3.732;2024-03-29T14:12:11;1.65;;;0.30;;
59922;SDS011;45778;51.142;3.732;2024-03-29T14:14:38;0.47;;;0.30;;
59922;SDS011;45778;51.142;3.732;2024-03-29T14:17:04;1.27;;;0.43;;
59922;SDS011;45778;51.142;3.732;2024-03-29T14:19:32;0.25;;;0.20;;
59922;SDS011;45778;51.142;3.732;2024-03-29T14:21:58;0.85;;;0.28;;
59922;SDS011;45778;51.142;3.732;2024-03-29T14:24:28;0.68;;;0.20;;
59922;SDS011;45778;51.142;3.732;2024-03-29T14:26:59;1.52;;;0.63;;
59922;SDS011;45778;51.142;3.732;2024-03-29T14:29:25;2.13;;;0.30;;
59922;SDS011;45778;51.142;3.732;2024-03-29T14:31:50;0.73;;;0.30;;
59922;SDS011;45778;51.142;3.732;2024-03-29T14:34:18;0.85;;;0.40;;
59922;SDS011;45778;51.142;3.732;2024-03-29T14:36:45;1.63;;;0.30;;
59922;SDS011;45778;51.142;3.732;2024-03-29T14:39:10;0.82;;;0.28;;
59922;SDS011;45778;51.142;3.732;2024-03-29T14:41:40;1.60;;;0.30;;
59922;SDS011;45778;51.142;3.732;2024-03-29T14:44:07;1.33;;;0.85;;
59922;SDS011;45778;51.142;3.732;2024-03-29T14:46:34;1.40;;;0.30;;
59922;SDS011;45778;51.142;3.732;2024-03-29T14:49:00;0.65;;;0.20;;
59922;SDS011;45778;51.142;3.732;2024-03-29T14:51:36;0.38;;;0.30;;
59922;SDS011;45778;51.142;3.732;2024-03-29T14:54:01;0.40;;;0.20;;
59922;SDS011;45778;51.142;3.732;2024-03-29T14:56:31;1.42;;;0.30;;
59922;SDS011;45778;51.142;3.732;2024-03-29T14:59:01;1.42;;;0.30;;
59922;SDS011;45778;51.142;3.732;2024-03-29T15:01:30;0.25;;;0.20;;